createdAt,value
2023-04-30T00:00:00.215Z,9.00
2023-04-30T00:02:27.038Z,9.00
2023-04-30T00:04:53.765Z,8.90
2023-04-30T00:07:20.471Z,8.90
2023-04-30T00:09:47.148Z,8.90
2023-04-30T00:12:13.737Z,8.90
2023-04-30T00:14:40.411Z,8.80
2023-04-30T00:17:07.043Z,8.80
2023-04-30T00:19:33.635Z,8.80
2023-04-30T00:22:01.632Z,8.70
2023-04-30T00:24:28.674Z,8.70
2023-04-30T00:26:55.334Z,8.70
2023-04-30T00:29:21.892Z,8.70
2023-04-30T00:31:49.035Z,8.60
2023-04-30T00:34:15.821Z,8.60
2023-04-30T00:36:42.495Z,8.50
2023-04-30T00:39:09.103Z,8.50
2023-04-30T00:41:36.185Z,8.50
2023-04-30T00:44:02.998Z,8.50
2023-04-30T00:46:29.731Z,8.40
2023-04-30T00:48:56.618Z,8.40
2023-04-30T00:51:23.703Z,8.40
2023-04-30T00:53:50.311Z,8.30
2023-04-30T00:56:17.119Z,8.30
2023-04-30T00:58:43.778Z,8.30
2023-04-30T01:01:10.618Z,8.20
2023-04-30T01:03:37.451Z,8.20
2023-04-30T01:06:04.296Z,8.20
2023-04-30T01:08:31.954Z,8.20
2023-04-30T01:11:17.467Z,8.20
2023-04-30T01:14:04.289Z,8.10
2023-04-30T01:16:36.402Z,8.10
2023-04-30T01:19:11.807Z,8.00
2023-04-30T01:21:42.754Z,8.00
2023-04-30T01:24:25.518Z,8.00
2023-04-30T01:27:25.008Z,8.00
2023-04-30T01:29:54.890Z,7.90
2023-04-30T01:32:21.722Z,7.90
2023-04-30T01:34:48.470Z,7.90
2023-04-30T01:38:04.417Z,7.90
2023-04-30T01:40:42.746Z,7.80
2023-04-30T01:43:32.499Z,7.80
2023-04-30T01:46:08.531Z,7.80
2023-04-30T01:49:32.455Z,7.70
2023-04-30T01:52:41.915Z,7.70
2023-04-30T01:55:14.524Z,7.70
2023-04-30T01:57:51.018Z,7.70
2023-04-30T02:00:17.990Z,7.60
2023-04-30T02:02:44.817Z,7.60
2023-04-30T02:05:11.578Z,7.50
2023-04-30T02:07:41.355Z,7.50
2023-04-30T02:10:08.883Z,7.40
2023-04-30T02:12:36.576Z,7.40
2023-04-30T02:15:04.772Z,7.40
2023-04-30T02:17:32.208Z,7.40
2023-04-30T02:19:59.790Z,7.40
2023-04-30T02:22:26.790Z,7.30
2023-04-30T02:24:55.662Z,7.30
2023-04-30T02:27:24.678Z,7.30
2023-04-30T02:29:51.703Z,7.30
2023-04-30T02:32:18.532Z,7.20
2023-04-30T02:34:45.353Z,7.20
2023-04-30T02:37:12.071Z,7.30
2023-04-30T02:39:38.678Z,7.20
2023-04-30T02:42:06.752Z,7.20
2023-04-30T02:44:35.438Z,7.20
2023-04-30T02:47:02.528Z,7.20
2023-04-30T02:49:29.667Z,7.10
2023-04-30T02:51:56.317Z,7.10
2023-04-30T02:54:23.103Z,7.10
2023-04-30T02:56:49.779Z,7.00
2023-04-30T02:59:16.448Z,7.00
2023-04-30T03:01:43.165Z,7.00
2023-04-30T03:04:09.805Z,7.00
2023-04-30T03:06:36.792Z,7.10
2023-04-30T03:09:03.661Z,7.10
2023-04-30T03:11:30.323Z,7.20
2023-04-30T03:13:56.974Z,7.10
2023-04-30T03:16:23.685Z,7.10
2023-04-30T03:18:50.385Z,7.10
2023-04-30T03:21:17.183Z,7.10
2023-04-30T03:23:43.810Z,7.10
2023-04-30T03:26:10.503Z,7.10
2023-04-30T03:28:37.160Z,7.10
2023-04-30T03:31:06.658Z,7.00
2023-04-30T03:33:33.578Z,7.00
2023-04-30T03:36:00.266Z,7.10
2023-04-30T03:38:26.881Z,7.10
2023-04-30T03:40:53.723Z,7.10
2023-04-30T03:43:20.834Z,7.00
2023-04-30T03:45:47.523Z,7.00
2023-04-30T03:48:14.229Z,7.00
2023-04-30T03:50:40.960Z,7.10
2023-04-30T03:53:07.582Z,7.10
2023-04-30T03:55:34.515Z,7.10
2023-04-30T03:58:01.449Z,7.10
2023-04-30T04:00:28.155Z,7.00
2023-04-30T04:02:55.172Z,7.10
2023-04-30T04:05:21.881Z,7.00
2023-04-30T04:07:48.682Z,7.00
2023-04-30T04:10:15.335Z,7.10
2023-04-30T04:12:41.933Z,7.00
2023-04-30T04:15:09.371Z,7.00
2023-04-30T04:17:36.082Z,7.00
2023-04-30T04:20:06.008Z,7.10
2023-04-30T04:22:32.584Z,7.10
2023-04-30T04:24:59.234Z,7.10
2023-04-30T04:27:25.857Z,7.10
2023-04-30T04:29:52.990Z,7.10
2023-04-30T04:32:19.784Z,7.00
2023-04-30T04:34:47.296Z,7.00
2023-04-30T04:37:14.222Z,7.00
2023-04-30T04:39:40.985Z,7.00
2023-04-30T04:42:07.915Z,7.00
2023-04-30T04:44:34.558Z,7.10
2023-04-30T04:47:03.302Z,7.10
2023-04-30T04:49:30.275Z,7.10
2023-04-30T04:51:56.875Z,7.10
2023-04-30T04:54:23.509Z,7.10
2023-04-30T04:56:50.129Z,7.10
2023-04-30T04:59:17.581Z,7.10
2023-04-30T05:01:44.338Z,7.10
2023-04-30T05:04:10.995Z,7.10
2023-04-30T05:06:37.767Z,7.10
2023-04-30T05:09:07.213Z,7.10
2023-04-30T05:11:33.839Z,7.10
2023-04-30T05:14:00.510Z,7.10
2023-04-30T05:16:27.213Z,7.10
2023-04-30T05:18:53.894Z,7.10
2023-04-30T05:21:20.542Z,7.20
2023-04-30T05:23:47.305Z,7.30
2023-04-30T05:26:13.959Z,7.30
2023-04-30T05:28:41.150Z,7.40
2023-04-30T05:31:07.778Z,7.50
2023-04-30T05:33:34.596Z,7.60
2023-04-30T05:36:01.253Z,7.60
2023-04-30T05:38:28.088Z,7.60
2023-04-30T05:40:54.651Z,7.60
2023-04-30T05:43:21.371Z,7.70
2023-04-30T05:45:48.024Z,7.70
2023-04-30T05:48:14.746Z,7.80
2023-04-30T05:50:41.429Z,7.80
2023-04-30T05:53:08.662Z,7.90
2023-04-30T05:55:35.318Z,7.90
2023-04-30T05:58:02.012Z,8.00
2023-04-30T06:00:28.737Z,8.00
2023-04-30T06:02:55.478Z,8.10
2023-04-30T06:05:22.154Z,8.10
2023-04-30T06:07:48.831Z,8.20
2023-04-30T06:10:15.630Z,8.30
2023-04-30T06:12:42.229Z,8.30
2023-04-30T06:15:09.206Z,8.40
2023-04-30T06:17:35.945Z,8.40
2023-04-30T06:20:06.830Z,8.50
2023-04-30T06:22:34.576Z,8.60
2023-04-30T06:25:01.471Z,8.70
2023-04-30T06:27:28.080Z,8.70
2023-04-30T06:29:55.377Z,8.80
2023-04-30T06:32:22.155Z,8.90
2023-04-30T06:34:48.889Z,8.90
2023-04-30T06:37:15.561Z,9.00
2023-04-30T06:39:42.175Z,9.10
2023-04-30T06:42:08.741Z,9.20
2023-04-30T06:44:35.405Z,9.20
2023-04-30T06:47:02.451Z,9.30
2023-04-30T06:49:29.092Z,9.40
2023-04-30T06:51:58.454Z,9.50
2023-04-30T06:54:26.771Z,9.60
2023-04-30T06:56:53.895Z,9.60
2023-04-30T06:59:20.863Z,9.70
2023-04-30T07:01:47.529Z,9.80
2023-04-30T07:04:14.186Z,9.80
2023-04-30T07:06:40.977Z,9.80
2023-04-30T07:09:07.639Z,9.80
2023-04-30T07:11:34.464Z,9.90
2023-04-30T07:14:01.171Z,9.90
2023-04-30T07:16:28.071Z,10.00
2023-04-30T07:18:54.880Z,10.10
2023-04-30T07:21:21.935Z,10.10
2023-04-30T07:23:51.486Z,10.20
2023-04-30T07:26:18.299Z,10.30
2023-04-30T07:28:48.121Z,10.40
2023-04-30T07:31:14.822Z,10.50
2023-04-30T07:33:42.328Z,10.50
2023-04-30T07:36:09.014Z,10.60
2023-04-30T07:38:35.662Z,10.70
2023-04-30T07:41:03.109Z,10.80
2023-04-30T07:43:31.835Z,10.80
2023-04-30T07:45:59.309Z,10.90
2023-04-30T07:48:26.081Z,11.00
2023-04-30T07:50:53.126Z,11.10
2023-04-30T07:53:19.849Z,11.10
2023-04-30T07:55:46.598Z,11.20
2023-04-30T07:58:13.239Z,11.30
2023-04-30T08:00:41.104Z,11.40
2023-04-30T08:03:08.335Z,11.40
2023-04-30T08:05:35.114Z,11.40
2023-04-30T08:08:01.938Z,11.50
2023-04-30T08:10:28.582Z,11.80
2023-04-30T08:12:55.321Z,11.90
2023-04-30T08:15:21.975Z,12.00
2023-04-30T08:17:55.059Z,12.00
2023-04-30T08:20:23.509Z,11.90
2023-04-30T08:22:51.077Z,12.10
2023-04-30T08:25:17.826Z,12.10
2023-04-30T08:27:44.819Z,12.10
2023-04-30T08:30:11.667Z,12.20
2023-04-30T08:32:38.662Z,12.20
2023-04-30T08:35:06.299Z,12.30
2023-04-30T08:37:33.777Z,12.40
2023-04-30T08:40:00.969Z,12.50
2023-04-30T08:42:32.340Z,12.50
2023-04-30T08:45:01.644Z,12.60
2023-04-30T08:47:28.554Z,12.50
2023-04-30T08:49:55.939Z,12.50
2023-04-30T08:52:30.569Z,12.70
2023-04-30T08:54:58.571Z,12.60
2023-04-30T08:57:25.175Z,12.70
2023-04-30T08:59:51.842Z,13.00
2023-04-30T09:02:18.613Z,13.10
2023-04-30T09:04:46.117Z,13.30
2023-04-30T09:07:14.533Z,13.40
2023-04-30T09:09:41.252Z,13.40
2023-04-30T09:12:19.743Z,13.40
2023-04-30T09:15:02.064Z,13.50
2023-04-30T09:17:29.314Z,13.70
2023-04-30T09:20:06.981Z,13.70
2023-04-30T09:22:35.077Z,13.80
2023-04-30T09:25:01.706Z,13.90
2023-04-30T09:27:28.406Z,13.90
2023-04-30T09:29:56.590Z,14.10
2023-04-30T09:32:23.469Z,14.30
2023-04-30T09:34:50.461Z,14.20
2023-04-30T09:37:17.256Z,14.20
2023-04-30T09:39:53.957Z,14.50
2023-04-30T09:42:21.213Z,14.80
2023-04-30T09:44:48.553Z,14.70
2023-04-30T09:47:20.548Z,14.70
2023-04-30T09:49:54.436Z,14.60
2023-04-30T09:52:21.593Z,14.90
2023-04-30T09:54:54.293Z,15.00
2023-04-30T09:57:24.272Z,15.00
2023-04-30T09:59:53.748Z,14.80
2023-04-30T10:02:23.513Z,14.80
2023-04-30T10:04:58.082Z,14.90
2023-04-30T10:07:27.094Z,14.90
2023-04-30T10:10:06.638Z,14.90
2023-04-30T10:12:43.227Z,15.10
2023-04-30T10:15:23.175Z,14.90
2023-04-30T10:18:29.015Z,15.20
2023-04-30T10:20:57.190Z,15.60
2023-04-30T10:23:24.452Z,15.70
2023-04-30T10:25:51.829Z,15.70
2023-04-30T10:28:23.135Z,15.70
2023-04-30T10:30:52.320Z,15.90
2023-04-30T10:33:33.077Z,16.10
2023-04-30T10:36:04.468Z,16.20
2023-04-30T10:38:33.069Z,16.10
2023-04-30T10:41:04.495Z,16.30
2023-04-30T10:43:31.880Z,16.50
2023-04-30T10:45:59.751Z,16.70
2023-04-30T10:48:27.588Z,16.90
2023-04-30T10:51:01.394Z,16.90
2023-04-30T10:53:31.888Z,16.90
2023-04-30T10:56:08.825Z,17.20
2023-04-30T10:58:38.749Z,17.20
2023-04-30T11:01:11.479Z,17.20
2023-04-30T11:03:40.114Z,17.10
2023-04-30T11:06:14.970Z,17.30
2023-04-30T11:08:46.433Z,17.30
2023-04-30T11:11:23.879Z,17.50
2023-04-30T11:14:03.057Z,17.70
2023-04-30T11:16:35.108Z,17.60
2023-04-30T11:19:13.487Z,17.50
2023-04-30T11:21:41.265Z,17.80
2023-04-30T11:24:08.187Z,17.80
2023-04-30T11:27:03.663Z,18.00
2023-04-30T11:29:32.223Z,18.10
2023-04-30T11:32:01.707Z,18.40
2023-04-30T11:34:29.532Z,18.10
2023-04-30T11:37:00.957Z,18.00
2023-04-30T11:39:29.634Z,18.00
2023-04-30T11:41:56.310Z,17.90
2023-04-30T11:44:29.069Z,18.50
2023-04-30T11:46:56.106Z,18.40
2023-04-30T11:49:24.677Z,18.70
2023-04-30T11:51:52.604Z,18.90
2023-04-30T11:54:19.850Z,18.90
2023-04-30T11:56:50.386Z,18.80
2023-04-30T11:59:19.100Z,18.80
2023-04-30T12:01:45.940Z,18.30
2023-04-30T12:04:13.676Z,18.20
2023-04-30T12:06:41.337Z,18.70
2023-04-30T12:09:09.410Z,19.00
2023-04-30T12:11:38.684Z,18.60
2023-04-30T12:14:07.960Z,18.90
2023-04-30T12:16:45.962Z,18.60
2023-04-30T12:19:13.168Z,18.40
2023-04-30T12:21:46.471Z,18.80
2023-04-30T12:24:14.156Z,19.00
2023-04-30T12:26:42.029Z,18.70
2023-04-30T12:29:14.340Z,18.40
2023-04-30T12:31:42.537Z,18.80
2023-04-30T12:34:13.092Z,19.40
2023-04-30T12:36:46.362Z,19.50
2023-04-30T12:39:18.343Z,19.50
2023-04-30T12:41:47.517Z,19.10
2023-04-30T12:44:25.992Z,19.10
2023-04-30T12:46:57.301Z,19.30
2023-04-30T12:49:27.275Z,19.30
2023-04-30T12:51:59.647Z,19.30
2023-04-30T12:54:32.414Z,19.00
2023-04-30T12:57:03.623Z,18.80
2023-04-30T12:59:31.883Z,18.90
2023-04-30T13:02:13.266Z,19.20
2023-04-30T13:04:42.958Z,18.90
2023-04-30T13:07:10.514Z,19.00
2023-04-30T13:09:38.284Z,18.80
2023-04-30T13:12:06.574Z,18.90
2023-04-30T13:14:33.583Z,18.80
2023-04-30T13:17:01.363Z,18.90
2023-04-30T13:19:30.204Z,19.50
2023-04-30T13:22:00.851Z,20.20
2023-04-30T13:24:27.957Z,20.30
2023-04-30T13:26:54.632Z,20.40
2023-04-30T13:29:21.228Z,20.00
2023-04-30T13:31:50.893Z,19.50
2023-04-30T13:34:17.644Z,19.50
2023-04-30T13:36:45.491Z,19.40
2023-04-30T13:39:12.129Z,19.50
2023-04-30T13:41:38.823Z,19.40
2023-04-30T13:44:05.918Z,19.30
2023-04-30T13:46:32.593Z,19.30
2023-04-30T13:49:00.673Z,19.40
2023-04-30T13:51:27.842Z,19.30
2023-04-30T13:53:54.574Z,19.60
2023-04-30T13:56:21.445Z,20.10
2023-04-30T13:58:49.192Z,21.00
2023-04-30T14:01:16.164Z,21.80
2023-04-30T14:03:42.841Z,21.80
2023-04-30T14:06:10.148Z,22.10
2023-04-30T14:08:36.967Z,21.70
2023-04-30T14:11:03.569Z,22.40
2023-04-30T14:13:31.217Z,22.00
2023-04-30T14:15:58.145Z,21.70
2023-04-30T14:18:25.377Z,21.10
2023-04-30T14:20:52.034Z,21.10
2023-04-30T14:23:18.683Z,21.10
2023-04-30T14:25:45.343Z,21.70
2023-04-30T14:28:12.160Z,22.30
2023-04-30T14:30:38.863Z,21.80
2023-04-30T14:33:05.586Z,20.90
2023-04-30T14:35:33.599Z,20.90
2023-04-30T14:38:00.373Z,20.70
2023-04-30T14:40:27.160Z,20.70
2023-04-30T14:42:54.193Z,20.50
2023-04-30T14:45:20.886Z,20.50
2023-04-30T14:47:47.886Z,20.20
2023-04-30T14:50:14.976Z,20.10
2023-04-30T14:52:42.092Z,20.20
2023-04-30T14:55:11.250Z,20.10
2023-04-30T14:57:37.954Z,20.20
2023-04-30T15:00:06.743Z,20.20
2023-04-30T15:02:35.044Z,20.30
2023-04-30T15:05:04.292Z,20.60
2023-04-30T15:07:32.693Z,21.20
2023-04-30T15:10:03.662Z,21.60
2023-04-30T15:12:39.191Z,21.60
2023-04-30T15:15:07.056Z,22.10
2023-04-30T15:17:39.748Z,22.20
2023-04-30T15:20:07.747Z,21.60
2023-04-30T15:22:34.561Z,21.20
2023-04-30T15:25:03.899Z,20.90
2023-04-30T15:27:31.957Z,20.70
2023-04-30T15:30:00.479Z,20.60
2023-04-30T15:32:27.631Z,20.10
2023-04-30T15:34:55.424Z,20.40
2023-04-30T15:37:22.259Z,20.30
2023-04-30T15:39:49.906Z,20.20
2023-04-30T15:42:16.845Z,20.50
2023-04-30T15:44:43.516Z,20.60
2023-04-30T15:47:10.769Z,20.70
2023-04-30T15:49:37.409Z,21.20
2023-04-30T15:52:04.222Z,21.60
2023-04-30T15:54:30.932Z,22.00
2023-04-30T15:56:58.411Z,21.60
2023-04-30T15:59:25.109Z,21.90
2023-04-30T16:01:51.744Z,22.00
2023-04-30T16:04:18.531Z,21.20
2023-04-30T16:06:45.363Z,21.30
2023-04-30T16:09:12.661Z,20.90
2023-04-30T16:11:40.195Z,20.70
2023-04-30T16:14:07.272Z,20.40
2023-04-30T16:16:33.995Z,20.30
2023-04-30T16:19:00.787Z,20.20
2023-04-30T16:21:29.223Z,20.10
2023-04-30T16:23:55.865Z,20.00
2023-04-30T16:26:22.789Z,20.10
2023-04-30T16:28:49.644Z,20.20
2023-04-30T16:31:16.493Z,20.40
2023-04-30T16:33:43.342Z,20.60
2023-04-30T16:36:11.007Z,20.70
2023-04-30T16:38:37.669Z,20.90
2023-04-30T16:41:04.374Z,21.00
2023-04-30T16:43:31.099Z,21.10
2023-04-30T16:45:58.254Z,21.20
2023-04-30T16:48:24.957Z,21.00
2023-04-30T16:50:51.714Z,20.90
2023-04-30T16:53:18.616Z,20.80
2023-04-30T16:55:46.608Z,20.60
2023-04-30T16:58:13.216Z,20.20
2023-04-30T17:00:46.446Z,20.20
2023-04-30T17:03:13.669Z,20.00
2023-04-30T17:05:40.401Z,19.80
2023-04-30T17:08:07.312Z,19.80
2023-04-30T17:10:33.987Z,19.60
2023-04-30T17:13:03.948Z,19.70
2023-04-30T17:15:30.846Z,19.50
2023-04-30T17:17:57.999Z,19.50
2023-04-30T17:20:24.727Z,19.60
2023-04-30T17:22:53.206Z,19.40
2023-04-30T17:25:19.903Z,19.40
2023-04-30T17:27:47.291Z,19.40
2023-04-30T17:30:14.950Z,19.40
2023-04-30T17:32:43.512Z,19.20
2023-04-30T17:35:11.489Z,19.10
2023-04-30T17:37:38.341Z,19.10
2023-04-30T17:40:05.654Z,19.20
2023-04-30T17:42:34.039Z,19.20
2023-04-30T17:45:00.748Z,19.10
2023-04-30T17:47:27.552Z,19.10
2023-04-30T17:49:54.552Z,19.10
2023-04-30T17:52:21.352Z,19.20
2023-04-30T17:54:48.111Z,18.90
2023-04-30T17:57:14.856Z,18.80
2023-04-30T17:59:41.643Z,18.80
2023-04-30T18:02:08.457Z,18.80
2023-04-30T18:04:35.117Z,18.90
2023-04-30T18:07:01.721Z,18.70
2023-04-30T18:09:28.371Z,18.70
2023-04-30T18:11:55.430Z,18.50
2023-04-30T18:14:22.425Z,18.60
2023-04-30T18:16:49.975Z,18.50
2023-04-30T18:19:17.608Z,18.50
2023-04-30T18:21:44.331Z,18.30
2023-04-30T18:24:11.162Z,18.20
2023-04-30T18:26:37.802Z,18.30
2023-04-30T18:29:05.147Z,18.30
2023-04-30T18:31:32.194Z,18.20
2023-04-30T18:33:58.866Z,18.10
2023-04-30T18:36:25.630Z,18.00
2023-04-30T18:38:52.383Z,18.00
2023-04-30T18:41:21.027Z,17.80
2023-04-30T18:43:49.251Z,17.80
2023-04-30T18:46:16.659Z,17.60
2023-04-30T18:48:43.343Z,17.60
2023-04-30T18:51:10.007Z,17.40
2023-04-30T18:53:36.732Z,17.30
2023-04-30T18:56:03.514Z,17.30
2023-04-30T18:58:30.244Z,17.20
2023-04-30T19:00:58.059Z,17.10
2023-04-30T19:03:25.096Z,17.00
2023-04-30T19:05:58.931Z,16.90
2023-04-30T19:08:25.944Z,16.80
2023-04-30T19:10:53.245Z,16.80
2023-04-30T19:13:19.909Z,16.70
2023-04-30T19:15:48.631Z,16.60
2023-04-30T19:18:16.692Z,16.50
2023-04-30T19:20:43.568Z,16.40
2023-04-30T19:23:10.520Z,16.30
2023-04-30T19:25:38.957Z,16.20
2023-04-30T19:28:05.850Z,16.10
2023-04-30T19:30:32.465Z,16.00
2023-04-30T19:32:59.133Z,15.90
2023-04-30T19:35:25.808Z,15.80
2023-04-30T19:37:52.529Z,15.70
2023-04-30T19:40:19.403Z,15.70
2023-04-30T19:42:47.610Z,15.60
2023-04-30T19:45:14.510Z,15.50
2023-04-30T19:47:41.319Z,15.40
2023-04-30T19:50:08.811Z,15.30
2023-04-30T19:52:35.559Z,15.20
2023-04-30T19:55:02.293Z,15.10
2023-04-30T19:57:32.994Z,15.10
2023-04-30T19:59:59.895Z,15.00
2023-04-30T20:02:26.520Z,15.00
2023-04-30T20:04:53.303Z,14.80
2023-04-30T20:07:20.494Z,14.70
2023-04-30T20:09:47.082Z,14.70
2023-04-30T20:12:13.829Z,14.70
2023-04-30T20:14:40.881Z,14.70
2023-04-30T20:17:07.641Z,14.50
2023-04-30T20:19:34.463Z,14.40
2023-04-30T20:22:02.825Z,14.40
2023-04-30T20:24:29.476Z,14.30
2023-04-30T20:26:56.856Z,14.30
2023-04-30T20:29:23.638Z,14.20
2023-04-30T20:31:50.437Z,14.20
2023-04-30T20:34:17.091Z,14.20
2023-04-30T20:36:43.765Z,14.10
2023-04-30T20:39:10.383Z,14.00
2023-04-30T20:41:37.655Z,14.00
2023-04-30T20:44:05.679Z,13.90
2023-04-30T20:46:33.153Z,13.90
2023-04-30T20:49:04.230Z,13.80
2023-04-30T20:51:31.595Z,13.90
2023-04-30T20:53:58.171Z,13.80
2023-04-30T20:56:24.883Z,13.90
2023-04-30T20:58:51.558Z,13.80
2023-04-30T21:01:18.293Z,13.80
2023-04-30T21:03:44.924Z,13.70
2023-04-30T21:06:11.885Z,13.70
2023-04-30T21:08:38.513Z,13.60
2023-04-30T21:11:05.095Z,13.60
2023-04-30T21:13:32.670Z,13.50
2023-04-30T21:15:59.373Z,13.50
2023-04-30T21:18:28.937Z,13.50
2023-04-30T21:21:02.610Z,13.30
2023-04-30T21:23:29.939Z,13.30
2023-04-30T21:25:56.838Z,13.30
2023-04-30T21:28:23.582Z,13.30
2023-04-30T21:30:50.268Z,13.20
2023-04-30T21:33:17.040Z,13.20
2023-04-30T21:35:43.751Z,13.20
2023-04-30T21:38:11.692Z,13.10
2023-04-30T21:40:38.478Z,13.10
2023-04-30T21:43:05.153Z,13.00
2023-04-30T21:45:34.891Z,13.00
2023-04-30T21:48:01.578Z,13.00
2023-04-30T21:50:28.283Z,12.90
2023-04-30T21:52:55.028Z,12.80
2023-04-30T21:55:21.943Z,12.80
2023-04-30T21:57:51.086Z,12.80
2023-04-30T22:00:18.652Z,12.80
2023-04-30T22:02:45.381Z,12.80
2023-04-30T22:05:12.994Z,12.80
2023-04-30T22:07:40.648Z,12.70
2023-04-30T22:10:07.858Z,12.70
2023-04-30T22:12:35.118Z,12.70
2023-04-30T22:15:05.020Z,12.50
2023-04-30T22:17:32.640Z,12.50
2023-04-30T22:19:59.361Z,12.50
2023-04-30T22:22:26.243Z,12.40
2023-04-30T22:24:52.990Z,12.30
2023-04-30T22:27:19.642Z,12.30
2023-04-30T22:29:49.653Z,12.40
2023-04-30T22:32:16.760Z,12.40
2023-04-30T22:34:44.030Z,12.30
2023-04-30T22:37:10.898Z,12.30
2023-04-30T22:39:38.166Z,12.30
2023-04-30T22:42:05.156Z,12.30
2023-04-30T22:44:32.194Z,12.30
2023-04-30T22:46:59.246Z,12.30
2023-04-30T22:49:31.267Z,12.20
2023-04-30T22:51:59.147Z,12.10
2023-04-30T22:54:25.980Z,12.10
2023-04-30T22:56:52.656Z,12.00
2023-04-30T22:59:19.323Z,12.00
2023-04-30T23:01:46.038Z,11.90
2023-04-30T23:04:13.692Z,11.90
2023-04-30T23:06:41.379Z,11.90
2023-04-30T23:09:08.215Z,11.80
2023-04-30T23:11:34.832Z,11.90
2023-04-30T23:14:01.498Z,11.80
2023-04-30T23:16:28.151Z,11.80
2023-04-30T23:18:54.802Z,11.70
2023-04-30T23:21:21.881Z,11.60
2023-04-30T23:23:48.659Z,11.50
2023-04-30T23:26:15.445Z,11.50
2023-04-30T23:28:42.115Z,11.50
2023-04-30T23:31:08.679Z,11.40
2023-04-30T23:33:35.293Z,11.40
2023-04-30T23:36:01.964Z,11.30
2023-04-30T23:38:28.571Z,11.30
2023-04-30T23:40:56.435Z,11.30
2023-04-30T23:43:25.171Z,11.20
2023-04-30T23:45:52.301Z,11.20
2023-04-30T23:48:19.008Z,11.20
2023-04-30T23:50:46.197Z,11.10
2023-04-30T23:53:14.018Z,11.10
2023-04-30T23:55:44.450Z,11.10
2023-04-30T23:58:11.096Z,11.00
